Orleans, IN (47452)

6:38 PM EDT on August 30, 2015 (GMT -0400)
B&K Mundy Farms | | Change Station
CLOSE
Current Station
Personal Weather Station
Location: Mitchell, IN
Elevation: 656 ft
Nearby Weather Stations

Elev 656 ft 38.71 °N, 86.49 °W | Updated 2 minutes ago

Overcast
Overcast
82.7 °F
Feels Like 88 °F
N
1.0
Wind Variable Wind from West
Gusts 3.0 mph

Today
High -- | Low -- °F
--% Chance of Precip.
Yesterday
High -- | Low -- °F
Precip. -- in
7:12 AM 8:19 PM
Full, 98% visible
Pressure 30.02 in
Visibility 10.0 miles
Clouds Scattered Clouds 7000 ft
Heat Index 88 °F
Dew Point 72 °F
Humidity 70%
Rainfall 0.00 in
Snow Depth Not available.
UV 2 out of 12
Pollen 9.50 out of 12
Air Quality Not available.
Flu Activity Not available.
METAR KBMG 302153Z 20005KT 10SM SCT070 28/18 A3004 RMK AO2 SLP164 T02830183
Pressure 30.02 in
Visibility 10.0 miles
Clouds Scattered Clouds 7000 ft
Heat Index 88 °F
Dew Point 72 °F
Humidity 70%
Rainfall 0.00 in
Snow Depth Not available.
UV 2 out of 12
Pollen 9.50 out of 12
Air Quality Not available.
Flu Activity Not available.
METAR KBMG 302153Z 20005KT 10SM SCT070 28/18 A3004 RMK AO2 SLP164 T02830183

10-Day Weather Forecast

×

Almanac

Astronomy

Aug. 30, 2015 Rise Set
Actual Time
Civil Twilight
Nautical Twilight
Astronomical Twilight
Moon
Length of Visible Light
Length of Day
Tomorrow will be .
, % of the Moon is Illuminated

Today's Extremes

State Highs State Lows

Community

WunderPhotos

Upload Photos

1,851,074 photos uploaded!

WunderBlogs® & News

Nearby

Air Quality

  Air Quality AQ Index Pollutant
Not available.

Snow Depth

Station Depth Elevation

Earthquake Activity

City Distance Mag. Time & Date
Minimum magnitude displayed is 2.5.

Coastal Water Temperatures

Place Temperature

Stations

Nearby Weather Stations

Station Location Temp. Windchill Dew Point Humidity Wind Precip. Elev Updated Type